Aviation Digital Data Service (ADDS)

Output produced by METARs form (1137 UTC 27 February 2015)
found at http://www.aviationweather.gov/adds/metars/
 
KIPT 271054Z AUTO 30003KT 10SM FEW042 M11/M17 A3034 RMK AO2 SLP282 T11111172
KIPT 270954Z AUTO 30004KT 10SM FEW044 OVC100 M11/M17 A3031 RMK AO2 SLP273 T11061167
KIPT 270854Z AUTO 29004KT 10SM OVC044 M11/M17 A3028 RMK AO2 SLP261 60000 T11061167 51022
KIPT 270754Z AUTO 32005KT 10SM OVC110 M10/M16 A3026 RMK AO2 SLP255 T11001156
KIPT 270654Z AUTO 32006KT 10SM BKN048 OVC120 M09/M16 A3024 RMK AO2 SNB05E16 SLP250 P0000 T10941156
KIPT 270554Z AUTO 30004KT 10SM FEW038 BKN055 OVC110 M09/M16 A3021 RMK AO2 SLP240 T10891161 11050 21089 53020
KIPT 270454Z AUTO 35005KT 10SM SCT032 OVC110 M08/M16 A3017 RMK AO2 SLP227 T10831161 410221089
KIPT 270354Z AUTO 35006KT 10SM OVC110 M08/M16 A3016 RMK AO2 SLP223 T10781156
KIPT 270254Z 35005KT 10SM OVC110 M07/M14 A3015 RMK AO2 SLP219 T10721139 53030
KIPT 270154Z 35005KT 10SM BKN048 M07/M13 A3012 RMK AO2 SLP209 T10671133
KIPT 270054Z 07006KT 10SM SCT033 SCT100 M06/M13 A3009 RMK AO2 SLP198 T10611128
KIPT 262354Z 36005KT 10SM SCT040 BKN120 M05/M13 A3006 RMK AO2 SLP188 T10501128 11022 21056 53026
KIPT 262254Z 36005KT 10SM FEW100 M04/M13 A3001 RMK AO2 SLP171 T10391128
KIPT 262154Z 01005KT 10SM FEW055 OVC080 M03/M12 A2998 RMK AO2 SLP160 T10281122
KIPT 262054Z 33008KT 10SM BKN065 BKN080 OVC100 M02/M13 A2998 RMK AO2 SLP160 T10221133 53005
KIPT 261954Z 23003KT 10SM SCT070 M03/M14 A2996 RMK AO2 SLP154 T10331139
KIPT 261854Z 21003KT 10SM CLR M04/M14 A2996 RMK AO2 SLP153 T10441144
KIPT 261754Z 00000KT 10SM BKN034 M05/M15 A2996 RMK AO2 SLP154 T10501150 11050 21089 58019
KIPT 261654Z 23003KT 10SM FEW034 SCT085 M07/M16 A2999 RMK AO2 SLP163 T10671156
KIPT 261554Z 27003KT 10SM FEW080 M07/M16 A3000 RMK AO2 SLP167 T10671156
KIPT 261454Z 00000KT 10SM OVC080 M08/M16 A3002 RMK AO2 SLP174 T10781161 55000
KIPT 261354Z 30003KT 10SM OVC080 M08/M17 A3002 RMK AO2 SLP174 T10831167
KIPT 261254Z 35005KT 10SM OVC090 M09/M17 A3002 RMK AO2 SLP173 T10891167
KIPT 261154Z 36005KT 10SM OVC095 M08/M17 A3002 RMK AO2 SLP174 T10831167 11056 21083 53011
KIPT 261054Z AUTO 03004KT 10SM OVC110 M08/M17 A3001 RMK AO2 SLP169 T10831172
KIPT 260954Z AUTO 36005KT 10SM FEW100 M08/M18 A2999 RMK AO2 SLP161 T10831178
KIPT 260854Z AUTO VRB04KT 10SM OVC110 M08/M18 A2999 RMK AO2 SLP161 T10831178 58006
KIPT 260754Z AUTO 36006KT 10SM BKN120 M08/M17 A3001 RMK AO2 SLP169 T10781172
KIPT 260654Z AUTO 03005KT 10SM CLR M07/M17 A3000 RMK AO2 SLP164 T10671172
KIPT 260554Z AUTO 02006KT 10SM BKN120 M06/M17 A3000 RMK AO2 SLP167 T10561172 11017 21067 50013
KIPT 260454Z AUTO 31005KT 10SM CLR M05/M17 A3001 RMK AO2 SLP167 T10501167 400221144
KIPT 260354Z AUTO 31003KT 10SM CLR M06/M13 A2998 RMK AO2 SLP159 T10561133
KIPT 260254Z 32003KT 10SM CLR M04/M13 A2997 RMK AO2 SLP155 T10391133 50013
KIPT 260154Z 29003KT 10SM CLR M03/M13 A2998 RMK AO2 SLP161 T10331133
KIPT 260054Z 24004KT 10SM CLR M03/M13 A2998 RMK AO2 PRESRR SLP159 T10331128
KIPT 252354Z 00000KT 10SM CLR M02/M13 A2993 RMK AO2 SLP143 60000 T10221128 10022 21028 53024